Time;durP1;ratioP1;P1;durP2;ratioP2;P2;SDS_P1;SDS_P2;PMS_P1;PMS_P2;Temp;Humidity;BMP_temperature;BMP_pressure;BME280_temperature;BME280_humidity;BME280_pressure;Samples;Min_cycle;Max_cycle;Signal;HPM_P1;HPM_P2
2024/04/19 00:01:49;;;;;;;5.10;3.80;;;25.60;99.90;;;;;;5369707;21;20053;-50
2024/04/19 00:04:14;;;;;;;4.53;3.28;;;25.60;99.90;;;;;;5345240;26;20029;-50
2024/04/19 00:06:40;;;;;;;3.25;2.88;;;25.50;99.90;;;;;;5315175;26;20434;-49
2024/04/19 00:09:06;;;;;;;4.03;3.15;;;25.60;99.90;;;;;;5347758;26;20000;-50
2024/04/19 00:11:32;;;;;;;6.93;3.40;;;25.50;99.90;;;;;;5348454;26;20029;-50
2024/04/19 00:13:58;;;;;;;5.03;3.05;;;25.50;99.90;;;;;;5348394;26;20000;-49
2024/04/19 00:16:25;;;;;;;5.15;2.97;;;25.50;99.90;;;;;;5348560;26;20000;-50
2024/04/19 00:18:51;;;;;;;5.50;2.90;;;25.50;99.90;;;;;;5348290;26;20008;-49
2024/04/19 00:21:17;;;;;;;4.55;3.10;;;25.50;99.90;;;;;;5348638;26;20008;-49
2024/04/19 00:23:42;;;;;;;4.35;3.25;;;25.50;99.90;;;;;;5348338;26;20011;-50
2024/04/19 00:26:08;;;;;;;5.28;3.08;;;25.50;99.90;;;;;;5348449;26;20000;-49
2024/04/19 00:28:34;;;;;;;5.80;3.80;;;25.50;99.90;;;;;;5348159;26;20000;-49
2024/04/19 00:31:00;;;;;;;5.75;3.03;;;25.50;99.90;;;;;;5348369;26;19997;-49
2024/04/19 00:33:25;;;;;;;4.07;3.30;;;25.50;99.90;;;;;;5289234;26;19996;-49
2024/04/19 00:35:51;;;;;;;5.68;3.30;;;25.50;99.90;;;;;;5348111;26;20001;-48
2024/04/19 00:38:17;;;;;;;6.07;3.35;;;25.50;99.90;;;;;;5347942;26;20001;-49
2024/04/19 00:40:43;;;;;;;5.53;3.13;;;25.50;99.90;;;;;;5348133;26;20008;-49
2024/04/19 00:43:08;;;;;;;6.47;3.58;;;25.50;99.90;;;;;;5347939;26;20441;-49
2024/04/19 00:45:39;;;;;;;5.28;3.28;;;25.50;99.90;;;;;;5317578;26;19997;-49
2024/04/19 00:48:19;;;;;;;3.92;2.83;;;25.40;99.90;;;;;;5317383;26;20005;-49
2024/04/19 00:55:46;;;;;;;4.90;3.42;;;25.50;99.90;;;;;;5386774;21;20004;-53
2024/04/19 00:58:13;;;;;;;7.38;3.70;;;25.40;99.90;;;;;;5383303;26;19992;-53
2024/04/19 01:00:39;;;;;;;6.97;3.47;;;25.40;99.90;;;;;;5382820;26;20070;-53
2024/04/19 01:03:04;;;;;;;6.03;3.53;;;25.40;99.90;;;;;;5383030;26;20388;-53
2024/04/19 01:05:31;;;;;;;5.38;3.38;;;25.40;99.90;;;;;;5383036;26;19996;-53
2024/04/19 01:07:58;;;;;;;6.90;3.80;;;25.40;99.90;;;;;;5382815;26;20447;-53
2024/04/19 01:10:24;;;;;;;4.50;3.33;;;25.40;99.90;;;;;;5382977;26;20000;-53
2024/04/19 01:12:50;;;;;;;7.45;3.45;;;25.40;99.90;;;;;;5382803;26;20214;-54
2024/04/19 01:15:23;;;;;;;4.18;2.95;;;25.40;99.90;;;;;;5382799;26;20061;-53
2024/04/19 01:17:49;;;;;;;6.32;3.28;;;25.40;99.90;;;;;;5382773;26;20065;-53
2024/04/19 01:20:15;;;;;;;7.38;3.67;;;25.40;99.90;;;;;;5382557;26;20028;-54
2024/04/19 01:22:43;;;;;;;4.13;3.47;;;25.40;99.90;;;;;;5382846;26;20011;-53
2024/04/19 01:25:27;;;;;;;;;;;25.40;99.90;;;;;;5383140;26;20010;-53
2024/04/19 01:27:52;;;;;;;11.32;3.97;;;25.40;99.90;;;;;;5382580;26;19933;-53
2024/04/19 01:30:18;;;;;;;5.70;3.88;;;25.40;99.90;;;;;;5382591;26;20000;-53
2024/04/19 01:32:44;;;;;;;4.72;2.90;;;25.40;99.90;;;;;;5382805;26;20070;-53
2024/04/19 01:35:10;;;;;;;4.93;3.30;;;25.40;99.90;;;;;;5382710;26;20001;-53
2024/04/19 01:37:35;;;;;;;5.63;3.38;;;25.30;99.90;;;;;;5382304;26;19996;-52
2024/04/19 01:40:01;;;;;;;5.93;3.70;;;25.30;99.90;;;;;;5382510;26;20347;-53
2024/04/19 01:42:27;;;;;;;5.00;3.22;;;25.30;99.90;;;;;;5382349;26;20007;-53
2024/04/19 01:44:53;;;;;;;6.70;4.05;;;25.40;99.90;;;;;;5382676;26;20000;-53
2024/04/19 01:47:18;;;;;;;6.82;3.58;;;25.30;99.90;;;;;;5382583;26;20491;-53
2024/04/19 01:49:44;;;;;;;5.95;3.80;;;25.30;99.90;;;;;;5382484;26;19996;-52
2024/04/19 01:52:10;;;;;;;5.72;3.47;;;25.30;99.90;;;;;;5382451;26;20402;-53
2024/04/19 01:54:36;;;;;;;5.63;3.83;;;25.30;99.90;;;;;;5395904;21;20019;-49
2024/04/19 01:57:02;;;;;;;5.80;3.40;;;25.30;99.90;;;;;;5380315;26;19992;-49
2024/04/19 01:59:28;;;;;;;5.97;3.80;;;25.30;99.90;;;;;;5381898;26;20036;-49
2024/04/19 02:01:55;;;;;;;5.50;4.22;;;25.30;99.90;;;;;;5366595;26;20339;-49
2024/04/19 02:04:21;;;;;;;4.80;3.65;;;25.30;99.90;;;;;;5381811;26;19996;-49
2024/04/19 02:06:46;;;;;;;6.00;3.70;;;25.30;99.90;;;;;;5381851;26;20007;-49
2024/04/19 02:09:12;;;;;;;7.53;3.95;;;25.30;99.90;;;;;;5381936;26;19996;-49
2024/04/19 02:11:38;;;;;;;7.50;3.47;;;25.20;99.90;;;;;;5380105;26;20066;-49
2024/04/19 02:14:04;;;;;;;5.60;3.42;;;25.20;99.90;;;;;;5378315;26;20000;-49
2024/04/19 02:16:30;;;;;;;5.85;3.80;;;25.30;99.90;;;;;;5378408;26;19996;-50
2024/04/19 02:18:56;;;;;;;4.20;3.50;;;25.20;99.90;;;;;;5378460;26;19988;-50
2024/04/19 02:21:27;;;;;;;4.80;3.13;;;25.20;99.90;;;;;;5376459;26;20061;-50
2024/04/19 02:23:54;;;;;;;5.47;3.33;;;25.20;99.90;;;;;;5378083;26;20026;-50
2024/04/19 02:26:20;;;;;;;4.63;3.47;;;25.20;99.90;;;;;;5378196;26;20000;-49
2024/04/19 02:31:30;;;;;;;7.03;3.65;;;25.20;99.90;;;;;;5380910;26;20517;-50
2024/04/19 02:33:56;;;;;;;6.88;3.53;;;25.20;99.90;;;;;;5381718;26;20069;-50
2024/04/19 02:36:23;;;;;;;6.78;3.88;;;25.20;99.90;;;;;;5381733;26;20007;-50
2024/04/19 02:38:49;;;;;;;5.10;3.70;;;25.20;99.90;;;;;;5382038;26;20014;-50
2024/04/19 02:41:15;;;;;;;7.13;3.22;;;25.20;99.90;;;;;;5381782;26;20436;-50
2024/04/19 02:43:45;;;;;;;7.25;4.35;;;25.20;99.90;;;;;;5381437;26;20000;-50
2024/04/19 02:46:11;;;;;;;5.55;3.70;;;25.20;99.90;;;;;;5381720;26;20007;-49
2024/04/19 02:48:37;;;;;;;5.50;3.53;;;25.10;99.90;;;;;;5381578;26;20000;-50
2024/04/19 02:51:03;;;;;;;6.18;3.35;;;25.20;99.90;;;;;;5381332;26;20323;-50
2024/04/19 02:53:31;;;;;;;6.05;3.28;;;25.10;99.90;;;;;;5393975;21;20004;-52
2024/04/19 02:55:58;;;;;;;5.10;3.78;;;25.10;99.90;;;;;;5381369;26;20008;-52
2024/04/19 02:58:24;;;;;;;5.80;3.20;;;25.10;99.90;;;;;;5381450;26;20003;-52
2024/04/19 03:00:50;;;;;;;5.22;3.22;;;25.10;99.90;;;;;;5381644;26;20008;-52
2024/04/19 03:03:16;;;;;;;5.70;3.50;;;25.10;99.90;;;;;;5381466;26;20431;-52
2024/04/19 03:05:42;;;;;;;5.03;3.55;;;25.10;99.90;;;;;;5381237;26;19996;-52
2024/04/19 03:08:08;;;;;;;5.53;3.05;;;25.10;99.90;;;;;;5409135;26;19992;-52
2024/04/19 03:10:40;;;;;;;5.13;3.35;;;25.00;99.90;;;;;;5381466;26;20305;-52
2024/04/19 03:13:08;;;;;;;4.55;2.90;;;25.10;99.90;;;;;;5381357;26;20000;-52
2024/04/19 03:15:34;;;;;;;4.75;3.03;;;25.10;99.90;;;;;;5381072;26;20007;-53
2024/04/19 03:18:00;;;;;;;4.63;2.80;;;25.00;99.90;;;;;;5379525;26;20004;-53
2024/04/19 03:20:26;;;;;;;6.50;3.35;;;25.00;99.90;;;;;;5381111;26;20011;-53
2024/04/19 03:22:52;;;;;;;4.00;3.22;;;25.00;99.90;;;;;;5408962;26;20000;-53
2024/04/19 03:25:18;;;;;;;5.00;3.35;;;25.00;99.90;;;;;;5381347;26;19997;-52
2024/04/19 03:27:43;;;;;;;4.75;3.28;;;25.00;99.90;;;;;;5379003;26;19997;-52
2024/04/19 03:30:09;;;;;;;4.63;3.08;;;25.00;99.90;;;;;;5380872;26;20000;-53
2024/04/19 03:32:35;;;;;;;6.57;3.63;;;25.00;99.90;;;;;;5380767;26;20070;-53
2024/04/19 03:35:01;;;;;;;5.38;3.35;;;25.00;99.90;;;;;;5380986;26;20398;-53
2024/04/19 03:37:27;;;;;;;5.03;3.08;;;25.00;99.90;;;;;;5381047;26;19996;-52
2024/04/19 03:39:53;;;;;;;5.95;3.13;;;25.00;99.90;;;;;;5380665;26;20348;-53
2024/04/19 03:42:20;;;;;;;6.55;2.97;;;25.00;99.90;;;;;;5379357;26;20450;-53
2024/04/19 03:47:33;;;;;;;5.22;2.70;;;25.00;99.90;;;;;;5380741;26;19932;-53
2024/04/19 03:49:59;;;;;;;7.63;3.33;;;25.00;99.90;;;;;;5380714;26;20012;-53
2024/04/19 03:52:24;;;;;;;4.68;2.97;;;25.00;99.90;;;;;;5380592;26;20357;-53
2024/04/19 03:54:50;;;;;;;4.80;3.15;;;25.00;99.90;;;;;;5394744;21;20019;-49
2024/04/19 03:57:16;;;;;;;4.28;2.92;;;24.90;99.90;;;;;;5380423;26;20428;-49
2024/04/19 03:59:42;;;;;;;7.40;3.13;;;24.90;99.90;;;;;;5380425;26;19992;-50
2024/04/19 04:02:08;;;;;;;5.18;2.78;;;24.90;99.90;;;;;;5408479;26;20069;-49
2024/04/19 04:04:33;;;;;;;6.55;2.92;;;24.90;99.90;;;;;;5380283;26;20044;-50
2024/04/19 04:06:59;;;;;;;8.07;3.05;;;24.90;99.90;;;;;;5380167;26;20000;-50
2024/04/19 04:09:25;;;;;;;4.22;2.85;;;24.90;99.90;;;;;;5407948;26;20007;-50
2024/04/19 04:11:51;;;;;;;4.32;2.67;;;24.90;99.90;;;;;;5380382;26;19992;-50
2024/04/19 04:14:16;;;;;;;4.88;2.72;;;24.90;99.90;;;;;;5378184;26;20003;-50
2024/04/19 04:16:42;;;;;;;4.10;2.45;;;24.90;99.90;;;;;;5379955;26;20004;-50
2024/04/19 04:19:08;;;;;;;5.95;3.10;;;24.90;99.90;;;;;;5380159;26;20010;-49
2024/04/19 04:21:34;;;;;;;3.90;2.65;;;24.90;99.90;;;;;;5379887;26;20071;-49
2024/04/19 04:23:59;;;;;;;6.55;2.78;;;24.90;99.90;;;;;;5380056;26;20578;-50
2024/04/19 04:26:25;;;;;;;4.45;2.80;;;24.90;99.90;;;;;;5379812;26;20000;-49
2024/04/19 04:28:51;;;;;;;4.95;2.40;;;24.90;99.90;;;;;;5380115;26;20024;-50
2024/04/19 04:31:17;;;;;;;7.50;2.97;;;24.90;99.90;;;;;;5379709;26;19996;-51
2024/04/19 04:33:42;;;;;;;6.18;2.88;;;24.90;99.90;;;;;;5379801;26;19996;-51
2024/04/19 04:36:08;;;;;;;4.88;2.58;;;24.90;99.90;;;;;;5377854;26;20070;-50
2024/04/19 04:38:34;;;;;;;5.22;2.60;;;24.90;99.90;;;;;;5379877;26;19992;-50
2024/04/19 04:41:00;;;;;;;5.88;3.08;;;24.90;99.90;;;;;;5379688;26;20000;-50
2024/04/19 04:43:26;;;;;;;4.43;2.65;;;24.80;99.90;;;;;;5379651;26;20064;-50
2024/04/19 04:45:52;;;;;;;5.22;2.88;;;24.80;99.90;;;;;;5378040;26;19992;-51
2024/04/19 04:48:17;;;;;;;7.03;2.60;;;24.80;99.90;;;;;;5379418;26;19992;-51
2024/04/19 04:50:43;;;;;;;6.68;2.55;;;24.80;99.90;;;;;;5377451;26;20027;-50
2024/04/19 04:53:10;;;;;;;4.93;2.95;;;24.80;99.90;;;;;;5379208;26;20065;-51
2024/04/19 04:55:36;;;;;;;5.35;2.60;;;24.80;99.90;;;;;;5410747;26;19996;-50
2024/04/19 04:58:01;;;;;;;9.60;2.92;;;24.80;99.90;;;;;;5382975;26;20015;-50
2024/04/19 05:00:31;;;;;;;6.32;3.05;;;24.90;99.90;;;;;;5381844;26;20004;-50
2024/04/19 05:02:58;;;;;;;6.22;2.95;;;24.80;99.90;;;;;;5378360;26;20000;-52
2024/04/19 05:05:24;;;;;;;7.53;2.20;;;24.80;99.90;;;;;;5380095;26;20012;-49
2024/04/19 05:07:50;;;;;;;7.72;2.47;;;24.80;99.90;;;;;;5379703;26;20008;-56
2024/04/19 05:10:17;;;;;;;5.07;2.35;;;24.80;99.90;;;;;;5379461;26;20012;-50
2024/04/19 05:12:43;;;;;;;7.13;2.60;;;24.80;99.90;;;;;;5407587;26;20028;-50
2024/04/19 05:15:08;;;;;;;5.82;2.75;;;24.80;99.90;;;;;;5379746;26;20188;-50
2024/04/19 05:17:35;;;;;;;5.10;2.42;;;24.80;99.90;;;;;;5380733;26;20011;-50
2024/04/19 05:20:02;;;;;;;5.47;2.53;;;24.80;99.90;;;;;;5382718;26;20015;-50
2024/04/19 05:22:28;;;;;;;7.70;2.57;;;24.80;99.90;;;;;;5380785;26;20016;-49
2024/04/19 05:24:54;;;;;;;7.18;2.80;;;24.80;99.90;;;;;;5376999;26;20006;-49
2024/04/19 05:27:20;;;;;;;6.43;2.88;;;24.80;99.90;;;;;;5361927;26;19997;-49
2024/04/19 05:29:46;;;;;;;5.40;2.53;;;24.80;99.90;;;;;;5354224;26;21269;-50
2024/04/19 05:32:12;;;;;;;6.72;2.35;;;24.70;99.90;;;;;;5381645;26;20049;-49
2024/04/19 05:34:38;;;;;;;8.13;2.20;;;24.70;99.90;;;;;;5381813;26;21382;-50
2024/04/19 05:37:04;;;;;;;5.68;2.40;;;24.70;99.90;;;;;;5382288;26;20004;-50
2024/04/19 05:39:30;;;;;;;6.03;2.47;;;24.70;99.90;;;;;;5381652;26;20014;-50
2024/04/19 05:41:55;;;;;;;4.43;2.08;;;24.70;99.90;;;;;;5379788;26;20026;-51
2024/04/19 05:44:21;;;;;;;5.95;2.33;;;24.70;99.90;;;;;;5378807;26;20092;-50
2024/04/19 05:46:47;;;;;;;6.93;2.42;;;24.70;99.90;;;;;;5378784;26;20000;-50
2024/04/19 05:49:14;;;;;;;6.07;2.38;;;24.70;99.90;;;;;;5378625;26;20007;-50
2024/04/19 05:51:40;;;;;;;6.15;2.60;;;24.70;99.90;;;;;;5378146;26;20000;-51
2024/04/19 05:54:05;;;;;;;5.53;2.55;;;24.70;99.90;;;;;;5378327;26;19996;-50
2024/04/19 05:56:31;;;;;;;6.60;2.28;;;24.70;99.90;;;;;;5379463;26;19996;-51
2024/04/19 05:58:57;;;;;;;6.22;2.17;;;24.70;99.90;;;;;;5380529;26;19996;-51
2024/04/19 06:01:26;;;;;;;5.78;2.00;;;24.70;99.90;;;;;;5381711;26;20000;-51
2024/04/19 06:03:52;;;;;;;6.55;2.17;;;24.70;99.90;;;;;;5381969;26;20001;-51
2024/04/19 06:06:18;;;;;;;6.40;2.45;;;24.70;99.90;;;;;;5380890;26;20126;-50
2024/04/19 06:08:44;;;;;;;5.47;1.63;;;24.70;99.90;;;;;;5409823;26;20007;-51
2024/04/19 06:11:10;;;;;;;4.50;1.98;;;24.70;99.90;;;;;;5382025;26;20000;-52
2024/04/19 06:13:37;;;;;;;6.63;1.70;;;24.70;99.90;;;;;;5381959;26;20513;-51
2024/04/19 06:16:03;;;;;;;4.50;2.35;;;24.70;99.90;;;;;;5380208;26;19996;-50
2024/04/19 06:18:29;;;;;;;4.72;1.90;;;24.70;99.90;;;;;;5380522;26;19996;-50
2024/04/19 06:20:55;;;;;;;4.07;2.13;;;24.60;99.90;;;;;;5382189;26;19996;-50
2024/04/19 06:23:21;;;;;;;5.63;2.20;;;24.70;99.90;;;;;;5379972;26;20001;-50
2024/04/19 06:25:47;;;;;;;6.28;2.25;;;24.70;99.90;;;;;;5379927;26;20364;-50
2024/04/19 06:28:13;;;;;;;4.93;1.90;;;24.70;99.90;;;;;;5381660;26;19996;-51
2024/04/19 06:30:39;;;;;;;6.90;2.40;;;24.70;99.90;;;;;;5381568;26;19996;-51
2024/04/19 06:33:05;;;;;;;5.53;2.13;;;24.70;99.90;;;;;;5409402;26;19996;-51
2024/04/19 06:35:33;;;;;;;5.97;2.25;;;24.70;99.90;;;;;;5381469;26;20126;-51
2024/04/19 06:37:59;;;;;;;6.22;2.45;;;24.70;99.90;;;;;;5381678;26;20015;-51
2024/04/19 06:40:24;;;;;;;6.25;1.70;;;24.60;99.90;;;;;;5381313;26;20078;-51
2024/04/19 06:42:50;;;;;;;4.50;2.05;;;24.70;99.90;;;;;;5381334;26;20424;-50
2024/04/19 06:45:16;;;;;;;3.65;1.60;;;24.60;99.90;;;;;;5409323;26;20073;-51
2024/04/19 06:47:42;;;;;;;4.30;1.75;;;24.70;99.90;;;;;;5381093;26;19997;-49
2024/04/19 06:50:08;;;;;;;7.15;2.03;;;24.60;99.90;;;;;;5381321;26;20064;-50
2024/04/19 06:52:34;;;;;;;4.18;2.00;;;24.60;99.90;;;;;;5381211;26;20000;-50
2024/04/19 06:55:00;;;;;;;7.38;2.50;;;24.60;99.90;;;;;;5381535;26;20388;-50
2024/04/19 06:57:25;;;;;;;4.57;1.58;;;24.60;99.90;;;;;;5381258;26;20394;-50
2024/04/19 06:59:51;;;;;;;5.65;2.08;;;24.60;99.90;;;;;;5381315;26;20408;-50
2024/04/19 07:02:17;;;;;;;4.43;1.92;;;24.60;99.90;;;;;;5381016;26;20011;-50
2024/04/19 07:04:43;;;;;;;5.65;2.40;;;24.60;99.90;;;;;;5381193;26;19996;-50
2024/04/19 07:07:08;;;;;;;6.32;2.25;;;24.60;99.90;;;;;;5381532;26;20027;-50
2024/04/19 07:09:34;;;;;;;5.93;1.77;;;24.60;99.90;;;;;;5380980;26;20000;-50
2024/04/19 07:12:00;;;;;;;4.70;1.95;;;24.60;99.90;;;;;;5381300;26;20010;-50
2024/04/19 07:14:26;;;;;;;5.35;1.75;;;24.60;99.90;;;;;;5381326;26;20007;-50
2024/04/19 07:16:52;;;;;;;5.38;1.70;;;24.60;99.90;;;;;;5380536;26;20400;-50
2024/04/19 07:19:17;;;;;;;5.50;2.45;;;24.60;99.90;;;;;;5380808;26;20012;-50
2024/04/19 07:21:43;;;;;;;4.97;2.17;;;24.60;99.90;;;;;;5380805;26;20324;-50
2024/04/19 07:24:09;;;;;;;5.53;1.63;;;24.60;99.90;;;;;;5380836;26;19996;-50
2024/04/19 07:26:37;;;;;;;6.95;2.10;;;24.60;99.90;;;;;;5379014;26;20005;-50
2024/04/19 07:29:04;;;;;;;3.97;2.10;;;24.60;99.90;;;;;;5380904;26;19996;-50
2024/04/19 07:31:30;;;;;;;4.63;2.03;;;24.60;99.90;;;;;;5379186;26;20000;-51
2024/04/19 07:33:56;;;;;;;5.15;1.90;;;24.60;99.90;;;;;;5380697;26;20455;-50
2024/04/19 07:36:22;;;;;;;3.95;1.90;;;24.60;99.90;;;;;;5378900;26;19996;-51
2024/04/19 07:38:47;;;;;;;4.70;1.67;;;24.60;99.90;;;;;;5380441;26;19996;-51
2024/04/19 07:41:13;;;;;;;5.15;2.38;;;24.60;99.90;;;;;;5380571;26;19996;-50
2024/04/19 07:43:39;;;;;;;4.15;2.20;;;24.60;99.90;;;;;;5380613;26;20000;-50
2024/04/19 07:46:05;;;;;;;6.50;2.17;;;24.60;99.90;;;;;;5380411;26;20000;-51
2024/04/19 07:48:31;;;;;;;5.07;2.05;;;24.60;99.90;;;;;;5380514;26;20333;-51
2024/04/19 07:50:56;;;;;;;4.45;1.52;;;24.60;99.90;;;;;;5380340;26;20082;-51
2024/04/19 07:53:22;;;;;;;5.22;2.15;;;24.50;99.90;;;;;;5380020;26;19996;-51
2024/04/19 07:55:48;;;;;;;4.70;2.78;;;24.60;99.90;;;;;;5380345;26;20011;-52
2024/04/19 07:58:14;;;;;;;6.47;1.98;;;24.60;99.90;;;;;;5378416;26;20011;-52
2024/04/19 08:00:41;;;;;;;5.45;2.20;;;24.60;99.90;;;;;;5380355;26;20332;-51
2024/04/19 08:03:07;;;;;;;6.05;2.13;;;24.60;99.90;;;;;;5380054;26;20472;-52
2024/04/19 08:05:32;;;;;;;4.72;2.20;;;24.60;99.90;;;;;;5380549;26;19997;-52
2024/04/19 08:07:59;;;;;;;7.15;2.35;;;24.60;99.90;;;;;;5380432;26;20103;-52
2024/04/19 08:10:27;;;;;;;4.68;1.92;;;24.60;99.90;;;;;;5379960;26;20004;-52
2024/04/19 08:12:53;;;;;;;5.30;2.03;;;24.60;99.90;;;;;;5380115;26;20032;-52
2024/04/19 08:15:19;;;;;;;5.25;2.05;;;24.60;99.90;;;;;;5380184;26;20394;-52
2024/04/19 08:17:45;;;;;;;10.73;2.70;;;24.60;99.90;;;;;;5380128;26;20000;-51
2024/04/19 08:20:11;;;;;;;5.03;2.45;;;24.60;99.90;;;;;;5380244;26;20000;-50
2024/04/19 08:22:37;;;;;;;5.07;2.30;;;24.60;99.90;;;;;;5379984;26;20015;-50
2024/04/19 08:25:03;;;;;;;6.00;2.78;;;24.60;99.90;;;;;;5380315;26;20016;-50
2024/04/19 08:27:29;;;;;;;5.75;2.35;;;24.60;99.90;;;;;;5378249;26;20133;-51
2024/04/19 08:29:55;;;;;;;6.65;2.50;;;24.60;99.90;;;;;;5382421;26;20000;-51
2024/04/19 08:32:21;;;;;;;6.05;2.42;;;24.60;99.90;;;;;;5383256;26;20007;-52
2024/04/19 08:34:48;;;;;;;7.70;2.60;;;24.60;99.90;;;;;;5383296;26;20073;-52
2024/04/19 08:37:14;;;;;;;5.93;2.38;;;24.60;99.90;;;;;;5383428;26;20000;-52
2024/04/19 08:39:39;;;;;;;5.88;2.28;;;24.60;99.90;;;;;;5383359;26;20000;-51
2024/04/19 08:42:08;;;;;;;7.75;2.47;;;24.60;99.90;;;;;;5383666;26;20420;-51
2024/04/19 08:44:34;;;;;;;6.75;2.65;;;24.60;99.90;;;;;;5383435;26;20000;-51
2024/04/19 08:47:01;;;;;;;5.78;2.47;;;24.60;99.90;;;;;;5383093;26;20454;-51
2024/04/19 08:49:28;;;;;;;5.45;2.10;;;24.60;99.90;;;;;;5410588;26;20653;-51
2024/04/19 08:51:55;;;;;;;7.43;2.92;;;24.60;99.90;;;;;;5382958;26;20008;-51
2024/04/19 08:54:22;;;;;;;6.45;2.63;;;24.60;99.90;;;;;;5382713;26;20004;-51
2024/04/19 08:56:50;;;;;;;7.32;2.40;;;24.60;99.90;;;;;;5380997;26;20000;-50
2024/04/19 08:59:18;;;;;;;8.85;3.10;;;24.60;99.90;;;;;;5379349;26;19996;-50
2024/04/19 09:01:44;;;;;;;8.27;3.03;;;24.60;99.90;;;;;;5379437;26;19996;-52
2024/04/19 09:04:09;;;;;;;8.10;2.67;;;24.60;99.90;;;;;;5406959;26;20003;-51
2024/04/19 09:06:36;;;;;;;6.80;2.67;;;24.60;99.90;;;;;;5377582;26;19996;-52
2024/04/19 09:09:03;;;;;;;7.45;2.78;;;24.60;99.90;;;;;;5374514;26;20323;-51
2024/04/19 09:11:28;;;;;;;7.88;2.63;;;24.60;99.90;;;;;;5364646;26;20415;-51
2024/04/19 09:13:55;;;;;;;8.02;2.72;;;24.60;99.90;;;;;;5379118;26;20029;-50
2024/04/19 09:16:22;;;;;;;4.80;2.33;;;24.60;99.90;;;;;;5379143;26;20019;-50
2024/04/19 09:18:49;;;;;;;6.30;2.63;;;24.60;99.90;;;;;;5379727;26;20259;-50
2024/04/19 09:21:16;;;;;;;6.90;2.90;;;24.60;99.90;;;;;;5380005;26;20218;-50
2024/04/19 09:23:42;;;;;;;7.00;2.58;;;24.60;99.90;;;;;;5378228;26;19992;-50
2024/04/19 09:26:08;;;;;;;7.32;2.72;;;24.70;99.90;;;;;;5380445;26;20341;-51
2024/04/19 09:28:34;;;;;;;7.38;2.55;;;24.60;99.90;;;;;;5380987;26;19996;-50
2024/04/19 09:31:00;;;;;;;8.35;2.60;;;24.60;99.90;;;;;;5381129;26;20436;-50
2024/04/19 09:33:26;;;;;;;9.60;2.78;;;24.70;99.90;;;;;;5382437;26;19996;-51
2024/04/19 09:35:55;;;;;;;9.20;3.10;;;24.60;99.90;;;;;;5382397;26;20003;-50
2024/04/19 09:38:21;;;;;;;7.28;2.47;;;24.60;99.90;;;;;;5382343;26;19996;-50
2024/04/19 09:40:48;;;;;;;5.53;2.33;;;24.70;99.90;;;;;;5380516;26;19993;-50
2024/04/19 09:43:23;;;;;;;10.43;3.10;;;24.60;99.90;;;;;;5380687;26;19992;-50
2024/04/19 09:45:56;;;;;;;8.75;3.10;;;24.60;99.90;;;;;;5382268;26;20011;-50
2024/04/19 09:48:26;;;;;;;7.80;2.60;;;24.70;99.90;;;;;;5380511;26;20015;-51
2024/04/19 09:50:56;;;;;;;9.07;3.28;;;24.60;99.90;;;;;;5380528;26;20074;-50
2024/04/19 09:53:33;;;;;;;6.78;2.33;;;24.70;99.90;;;;;;5381959;26;20036;-50
2024/04/19 09:56:25;;;;;;;8.55;2.25;;;24.70;99.90;;;;;;5382262;26;20475;-51
2024/04/19 09:58:52;;;;;;;9.63;2.85;;;24.70;99.90;;;;;;5380418;26;20012;-50
2024/04/19 10:01:19;;;;;;;6.30;2.38;;;24.70;99.90;;;;;;5382172;26;20455;-54
2024/04/19 10:03:47;;;;;;;8.13;2.25;;;24.70;99.90;;;;;;5380365;26;20004;-50
2024/04/19 10:06:13;;;;;;;5.75;2.08;;;24.70;99.90;;;;;;5380339;26;20089;-50
2024/04/19 10:08:40;;;;;;;6.97;2.55;;;24.70;99.90;;;;;;5382663;26;20011;-50
2024/04/19 10:11:06;;;;;;;7.38;2.30;;;24.70;99.90;;;;;;5381883;26;20476;-51
2024/04/19 10:13:32;;;;;;;6.38;2.55;;;24.70;99.90;;;;;;5381707;26;20046;-51
2024/04/19 10:15:59;;;;;;;9.70;2.92;;;24.70;99.90;;;;;;5381935;26;20000;-51
2024/04/19 10:18:26;;;;;;;7.18;1.90;;;24.70;99.90;;;;;;5382020;26;20000;-51
2024/04/19 10:20:52;;;;;;;9.23;2.25;;;24.80;99.90;;;;;;5379963;26;20000;-51
2024/04/19 10:23:19;;;;;;;6.97;2.33;;;24.80;99.90;;;;;;5382129;26;20000;-51
2024/04/19 10:25:48;;;;;;;13.13;2.80;;;24.80;99.90;;;;;;5381834;26;20000;-52
2024/04/19 10:28:17;;;;;;;6.35;2.22;;;24.80;99.90;;;;;;5381829;26;20011;-52
2024/04/19 10:30:44;;;;;;;8.32;2.75;;;24.80;99.90;;;;;;5381536;26;19996;-50
2024/04/19 10:33:10;;;;;;;6.32;2.28;;;24.80;99.90;;;;;;5380107;26;20011;-51
2024/04/19 10:35:42;;;;;;;8.43;2.38;;;24.80;99.90;;;;;;5381397;26;20011;-50
2024/04/19 10:38:10;;;;;;;10.73;2.80;;;24.80;99.90;;;;;;5381891;26;20020;-50
2024/04/19 10:40:36;;;;;;;;;;;24.80;99.90;;;;;;5382058;26;20007;-50
2024/04/19 10:43:06;;;;;;;8.25;2.38;;;24.80;99.90;;;;;;5381693;26;19925;-51
2024/04/19 10:45:32;;;;;;;8.25;2.15;;;24.80;99.90;;;;;;5381483;26;20000;-50
2024/04/19 10:47:59;;;;;;;5.32;2.15;;;24.80;99.90;;;;;;5381349;26;20038;-51
2024/04/19 10:50:28;;;;;;;9.47;3.27;;;24.90;99.90;;;;;;5381898;26;20000;-51
2024/04/19 10:52:56;;;;;;;6.82;2.45;;;24.90;99.90;;;;;;5380749;26;20011;-51
2024/04/19 10:55:23;;;;;;;10.73;3.15;;;24.90;99.90;;;;;;5381296;26;20444;-51
2024/04/19 10:57:49;;;;;;;9.20;3.13;;;24.90;99.90;;;;;;5381330;26;20000;-50
2024/04/19 11:00:15;;;;;;;10.23;2.80;;;24.90;99.90;;;;;;5379526;26;20444;-51
2024/04/19 11:02:41;;;;;;;8.55;3.22;;;24.90;99.90;;;;;;5381334;26;20032;-51
2024/04/19 11:05:09;;;;;;;9.32;2.60;;;24.90;99.90;;;;;;5381260;26;20028;-51
2024/04/19 11:07:35;;;;;;;7.35;3.10;;;24.90;99.90;;;;;;5379645;26;20414;-51
2024/04/19 11:10:02;;;;;;;6.22;2.40;;;24.90;99.90;;;;;;5381102;26;19996;-51
2024/04/19 11:12:29;;;;;;;10.10;2.67;;;24.90;99.90;;;;;;5380907;26;19996;-52
2024/04/19 11:14:57;;;;;;;10.48;3.03;;;25.00;99.90;;;;;;5381098;26;20008;-49
2024/04/19 11:17:23;;;;;;;7.45;2.40;;;24.90;99.90;;;;;;5380859;26;20321;-50
2024/04/19 11:19:49;;;;;;;5.68;2.55;;;25.00;99.90;;;;;;5380900;26;20011;-49
2024/04/19 11:22:15;;;;;;;5.65;2.50;;;25.00;99.90;;;;;;5381421;26;20431;-50
2024/04/19 11:24:41;;;;;;;11.85;3.50;;;25.00;99.90;;;;;;5381332;26;20040;-49
2024/04/19 11:27:08;;;;;;;7.20;2.47;;;25.00;99.90;;;;;;5380953;26;20340;-50
2024/04/19 11:29:34;;;;;;;8.40;2.55;;;25.00;99.90;;;;;;5381086;26;19996;-50
2024/04/19 11:32:05;;;;;;;7.55;2.90;;;25.00;99.90;;;;;;5380599;26;19996;-51
2024/04/19 11:34:31;;;;;;;9.52;2.65;;;25.00;99.90;;;;;;5380775;26;20000;-49
2024/04/19 11:37:05;;;;;;;15.38;3.03;;;25.00;99.90;;;;;;5378997;26;20003;-51
2024/04/19 11:39:31;;;;;;;7.72;2.72;;;25.00;99.90;;;;;;5380683;26;20011;-51
2024/04/19 11:41:57;;;;;;;9.55;2.70;;;25.00;99.90;;;;;;5380594;26;20340;-51
2024/04/19 11:44:23;;;;;;;9.00;3.13;;;25.00;99.90;;;;;;5380428;26;20007;-50
2024/04/19 11:46:49;;;;;;;10.00;3.40;;;25.00;99.90;;;;;;5380775;26;20001;-50
2024/04/19 11:49:16;;;;;;;8.30;3.63;;;25.00;99.90;;;;;;5380541;26;19996;-50
2024/04/19 11:51:44;;;;;;;10.35;3.00;;;25.00;99.90;;;;;;5380463;26;20011;-51
2024/04/19 11:54:09;;;;;;;6.03;2.78;;;25.10;99.90;;;;;;5380231;26;20448;-51
2024/04/19 11:56:35;;;;;;;6.55;2.50;;;25.10;99.90;;;;;;5380536;26;20064;-52
2024/04/19 11:59:02;;;;;;;7.72;2.83;;;25.00;99.90;;;;;;5378494;26;20061;-51
2024/04/19 12:01:28;;;;;;;6.72;2.80;;;25.10;99.90;;;;;;5380415;26;20001;-52
2024/04/19 12:03:54;;;;;;;9.00;3.00;;;25.10;99.90;;;;;;5381234;26;20000;-52
2024/04/19 12:06:23;;;;;;;13.77;3.17;;;25.10;99.90;;;;;;5383813;26;20000;-51
2024/04/19 12:08:49;;;;;;;8.35;2.72;;;25.10;99.90;;;;;;5383708;26;19996;-51
2024/04/19 12:11:15;;;;;;;7.88;2.67;;;25.10;99.90;;;;;;5383753;26;20012;-51
2024/04/19 12:13:45;;;;;;;8.85;2.60;;;25.10;99.90;;;;;;5383547;26;20009;-52
2024/04/19 12:16:10;;;;;;;6.47;2.75;;;25.10;99.90;;;;;;5383774;26;20074;-53
2024/04/19 12:18:36;;;;;;;7.25;2.03;;;25.10;99.90;;;;;;5383652;26;20011;-51
2024/04/19 12:21:02;;;;;;;10.02;2.75;;;25.10;99.90;;;;;;5383653;26;20007;-51
2024/04/19 12:23:28;;;;;;;8.52;2.83;;;25.20;99.90;;;;;;5383277;26;20364;-51
2024/04/19 12:25:54;;;;;;;6.82;2.40;;;25.10;99.90;;;;;;5383376;26;20134;-51
2024/04/19 12:28:24;;;;;;;8.57;2.38;;;25.20;99.90;;;;;;5383231;26;20001;-50
2024/04/19 12:30:54;;;;;;;7.18;2.58;;;25.20;99.90;;;;;;5373278;26;20012;-51
2024/04/19 12:33:21;;;;;;;12.57;3.03;;;25.20;99.90;;;;;;5397720;26;20008;-51
2024/04/19 12:35:47;;;;;;;12.45;3.17;;;25.20;99.90;;;;;;5367517;26;20077;-51
2024/04/19 12:38:13;;;;;;;8.95;3.03;;;25.20;99.90;;;;;;5377653;26;20008;-51
2024/04/19 12:40:40;;;;;;;7.03;2.75;;;25.20;99.90;;;;;;5356925;26;19992;-50
2024/04/19 12:43:06;;;;;;;8.48;2.80;;;25.20;99.90;;;;;;5379749;26;20007;-51
2024/04/19 12:45:32;;;;;;;9.70;2.50;;;25.20;99.90;;;;;;5379831;26;20007;-50
2024/04/19 12:48:06;;;;;;;7.75;2.47;;;25.30;99.90;;;;;;5378308;26;19992;-50
2024/04/19 12:50:33;;;;;;;10.73;3.15;;;25.30;99.90;;;;;;5380101;26;19996;-50
2024/04/19 12:52:59;;;;;;;6.20;2.35;;;25.30;99.90;;;;;;5380169;26;20150;-50
2024/04/19 12:55:25;;;;;;;6.60;2.08;;;25.30;99.90;;;;;;5380350;26;20402;-50